createdAt,value
2023-03-17T00:01:41.736Z,8.36
2023-03-17T00:04:12.628Z,8.34
2023-03-17T00:06:40.733Z,8.34
2023-03-17T00:09:15.545Z,8.39
2023-03-17T00:11:43.398Z,8.30
2023-03-17T00:14:10.275Z,8.29
2023-03-17T00:16:39.747Z,8.29
2023-03-17T00:19:06.487Z,8.26
2023-03-17T00:21:34.315Z,8.27
2023-03-17T00:24:01.652Z,8.22
2023-03-17T00:26:28.692Z,8.23
2023-03-17T00:28:55.273Z,8.24
2023-03-17T00:31:27.679Z,8.20
2023-03-17T00:33:55.342Z,8.18
2023-03-17T00:36:24.912Z,8.18
2023-03-17T00:38:52.795Z,8.17
2023-03-17T00:41:20.173Z,8.20
2023-03-17T00:43:46.793Z,8.21
2023-03-17T00:46:16.667Z,8.19
2023-03-17T00:48:45.534Z,8.22
2023-03-17T00:51:12.747Z,8.23
2023-03-17T00:53:39.897Z,8.17
2023-03-17T00:56:13.510Z,8.13
2023-03-17T00:58:40.106Z,8.16
2023-03-17T01:01:07.168Z,8.16
2023-03-17T01:03:34.354Z,8.10
2023-03-17T01:06:02.786Z,8.06
2023-03-17T01:08:30.292Z,8.10
2023-03-17T01:10:57.596Z,8.16
2023-03-17T01:13:24.655Z,8.17
2023-03-17T01:15:52.506Z,8.16
2023-03-17T01:18:22.732Z,8.12
2023-03-17T01:20:50.240Z,8.16
2023-03-17T01:23:17.885Z,8.14
2023-03-17T01:25:45.310Z,8.19
2023-03-17T01:28:18.046Z,8.17
2023-03-17T01:30:46.965Z,8.16
2023-03-17T01:33:14.570Z,8.14
2023-03-17T01:35:43.616Z,8.14
2023-03-17T01:38:10.670Z,8.16
2023-03-17T01:40:57.432Z,8.14
2023-03-17T01:43:28.085Z,8.18
2023-03-17T01:46:29.351Z,8.15
2023-03-17T01:49:09.379Z,8.12
2023-03-17T01:51:44.092Z,8.07
2023-03-17T01:54:22.330Z,8.08
2023-03-17T01:56:51.737Z,8.11
2023-03-17T01:59:23.783Z,8.06
2023-03-17T02:01:54.666Z,8.04
2023-03-17T02:04:22.031Z,7.97
2023-03-17T02:06:58.115Z,7.94
2023-03-17T02:09:27.063Z,7.98
2023-03-17T02:11:54.552Z,7.95
2023-03-17T02:14:21.534Z,7.98
2023-03-17T02:16:48.601Z,7.97
2023-03-17T02:19:16.114Z,7.99
2023-03-17T02:21:45.184Z,8.03
2023-03-17T02:24:37.657Z,8.00
2023-03-17T02:27:13.581Z,7.91
2023-03-17T02:29:41.495Z,7.94
2023-03-17T02:32:28.192Z,7.95
2023-03-17T02:35:16.202Z,7.89
2023-03-17T02:38:02.641Z,7.89
2023-03-17T02:40:49.278Z,7.89
2023-03-17T02:43:36.021Z,7.81
2023-03-17T02:46:08.228Z,7.71
2023-03-17T02:48:36.581Z,7.69
2023-03-17T02:51:04.213Z,7.68
2023-03-17T02:53:31.144Z,7.69
2023-03-17T02:55:58.244Z,7.63
2023-03-17T02:58:24.748Z,7.60
2023-03-17T03:00:51.565Z,7.58
2023-03-17T03:03:18.023Z,7.57
2023-03-17T03:05:44.757Z,7.60
2023-03-17T03:08:11.562Z,7.56
2023-03-17T03:10:37.999Z,7.55
2023-03-17T03:13:04.571Z,7.53
2023-03-17T03:15:31.095Z,7.49
2023-03-17T03:17:57.876Z,7.49
2023-03-17T03:20:24.559Z,7.45
2023-03-17T03:22:50.998Z,7.46
2023-03-17T03:25:17.768Z,7.42
2023-03-17T03:27:44.552Z,7.41
2023-03-17T03:30:11.610Z,7.37
2023-03-17T03:32:38.075Z,7.38
2023-03-17T03:35:04.932Z,7.15
2023-03-17T03:37:31.595Z,7.06
2023-03-17T03:39:58.114Z,6.81
2023-03-17T03:42:24.737Z,6.83
2023-03-17T03:44:51.478Z,6.78
2023-03-17T03:47:17.892Z,6.64
2023-03-17T03:49:44.496Z,6.61
2023-03-17T03:52:11.394Z,6.11
2023-03-17T03:54:38.356Z,6.03
2023-03-17T03:57:05.814Z,6.06
2023-03-17T03:59:32.428Z,6.14
2023-03-17T04:01:59.322Z,6.07
2023-03-17T04:04:25.991Z,6.11
2023-03-17T04:06:52.613Z,5.91
2023-03-17T04:09:19.184Z,5.85
2023-03-17T04:11:45.974Z,5.83
2023-03-17T04:14:12.654Z,5.76
2023-03-17T04:16:42.178Z,5.65
2023-03-17T04:19:09.681Z,5.60
2023-03-17T04:21:36.687Z,5.63
2023-03-17T04:24:05.214Z,5.57
2023-03-17T04:26:32.161Z,5.55
2023-03-17T04:28:58.985Z,5.38
2023-03-17T04:31:25.745Z,5.34
2023-03-17T04:33:52.676Z,5.29
2023-03-17T04:36:21.684Z,5.33
2023-03-17T04:38:48.128Z,5.23
2023-03-17T04:41:15.407Z,5.16
2023-03-17T04:43:42.006Z,5.19
2023-03-17T04:46:09.210Z,5.03
2023-03-17T04:48:35.991Z,5.10
2023-03-17T04:51:02.793Z,5.19
2023-03-17T04:53:34.244Z,5.42
2023-03-17T04:56:00.828Z,5.44
2023-03-17T04:58:31.021Z,5.33
2023-03-17T05:00:58.371Z,5.46
2023-03-17T05:03:27.652Z,5.59
2023-03-17T05:05:55.560Z,5.60
2023-03-17T05:08:22.438Z,5.71
2023-03-17T05:10:48.889Z,5.82
2023-03-17T05:13:15.879Z,5.88
2023-03-17T05:15:49.412Z,5.93
2023-03-17T05:18:16.557Z,6.07
2023-03-17T05:20:43.060Z,5.96
2023-03-17T05:23:09.931Z,5.67
2023-03-17T05:25:36.796Z,5.39
2023-03-17T05:28:03.780Z,5.22
2023-03-17T05:30:30.521Z,4.63
2023-03-17T05:32:57.576Z,4.63
2023-03-17T05:35:24.085Z,4.58
2023-03-17T05:37:51.078Z,4.50
2023-03-17T05:40:17.833Z,4.63
2023-03-17T05:42:44.460Z,4.62
2023-03-17T05:45:11.651Z,4.59
2023-03-17T05:47:38.116Z,4.54
2023-03-17T05:50:05.834Z,4.50
2023-03-17T05:52:32.404Z,4.42
2023-03-17T05:54:59.113Z,4.52
2023-03-17T05:57:26.280Z,4.51
2023-03-17T05:59:52.750Z,4.47
2023-03-17T06:02:19.571Z,4.40
2023-03-17T06:04:46.446Z,4.35
2023-03-17T06:07:13.215Z,4.35
2023-03-17T06:09:40.133Z,4.33
2023-03-17T06:12:07.480Z,4.38
2023-03-17T06:14:34.245Z,4.33
2023-03-17T06:17:01.662Z,4.30
2023-03-17T06:19:28.272Z,4.32
2023-03-17T06:21:54.775Z,4.20
2023-03-17T06:24:21.709Z,4.30
2023-03-17T06:26:48.350Z,4.38
2023-03-17T06:29:15.724Z,4.34
2023-03-17T06:31:42.165Z,4.35
2023-03-17T06:34:08.603Z,4.35
2023-03-17T06:36:36.965Z,4.36
2023-03-17T06:39:05.065Z,4.42
2023-03-17T06:41:31.860Z,4.45
2023-03-17T06:43:58.405Z,4.51
2023-03-17T06:46:24.957Z,4.55
2023-03-17T06:48:51.445Z,4.54
2023-03-17T06:51:18.033Z,4.62
2023-03-17T06:53:44.676Z,4.69
2023-03-17T06:56:23.531Z,4.80
2023-03-17T06:58:55.578Z,4.88
2023-03-17T07:01:22.369Z,4.98
2023-03-17T07:03:49.862Z,5.09
2023-03-17T07:06:16.647Z,5.26
2023-03-17T07:08:43.244Z,5.37
2023-03-17T07:11:09.827Z,5.48
2023-03-17T07:13:38.684Z,5.54
2023-03-17T07:16:06.959Z,5.74
2023-03-17T07:18:34.239Z,5.82
2023-03-17T07:21:01.928Z,5.69
2023-03-17T07:23:29.397Z,5.76
2023-03-17T07:25:57.433Z,5.80
2023-03-17T07:28:24.372Z,5.91
2023-03-17T07:30:51.372Z,6.00
2023-03-17T07:33:21.142Z,6.14
2023-03-17T07:35:49.456Z,6.41
2023-03-17T07:38:17.873Z,6.61
2023-03-17T07:40:47.562Z,6.64
2023-03-17T07:43:14.852Z,6.70
2023-03-17T07:45:41.456Z,6.79
2023-03-17T07:48:08.575Z,6.83
2023-03-17T07:50:37.036Z,6.97
2023-03-17T07:53:04.585Z,6.97
2023-03-17T07:55:32.782Z,6.99
2023-03-17T07:57:59.926Z,7.10
2023-03-17T08:00:27.831Z,6.87
2023-03-17T08:03:08.877Z,6.93
2023-03-17T08:05:35.816Z,7.13
2023-03-17T08:08:02.421Z,7.08
2023-03-17T08:10:29.559Z,7.17
2023-03-17T08:12:56.443Z,7.31
2023-03-17T08:15:22.994Z,7.52
2023-03-17T08:17:49.597Z,7.59
2023-03-17T08:20:16.340Z,8.00
2023-03-17T08:22:43.990Z,8.19
2023-03-17T08:25:11.709Z,8.29
2023-03-17T08:27:38.563Z,8.58
2023-03-17T08:30:05.801Z,8.47
2023-03-17T08:32:32.979Z,8.92
2023-03-17T08:35:00.329Z,8.70
2023-03-17T08:37:26.932Z,9.02
2023-03-17T08:39:53.572Z,9.22
2023-03-17T08:42:20.190Z,9.49
2023-03-17T08:44:47.246Z,9.83
2023-03-17T08:47:13.682Z,9.88
2023-03-17T08:49:40.252Z,10.04
2023-03-17T08:52:06.887Z,10.13
2023-03-17T08:54:35.001Z,10.19
2023-03-17T08:57:01.770Z,10.21
2023-03-17T08:59:28.694Z,10.78
2023-03-17T09:01:55.813Z,10.57
2023-03-17T09:04:23.326Z,10.44
2023-03-17T09:07:02.713Z,10.80
2023-03-17T09:09:31.070Z,10.88
2023-03-17T09:11:57.743Z,10.60
2023-03-17T09:14:24.674Z,10.84
2023-03-17T09:16:51.342Z,10.48
2023-03-17T09:19:17.888Z,11.41
2023-03-17T09:21:44.865Z,12.06
2023-03-17T09:24:11.704Z,12.01
2023-03-17T09:26:38.280Z,12.05
2023-03-17T09:29:05.270Z,12.01
2023-03-17T09:31:32.923Z,11.90
2023-03-17T09:33:59.960Z,12.20
2023-03-17T09:36:26.460Z,12.38
2023-03-17T09:38:53.028Z,11.96
2023-03-17T09:41:25.799Z,12.05
2023-03-17T09:43:58.386Z,11.94
2023-03-17T09:47:08.422Z,12.48
2023-03-17T09:49:45.963Z,12.41
2023-03-17T09:52:18.821Z,12.23
2023-03-17T09:54:46.620Z,12.64
2023-03-17T09:57:30.124Z,12.83
2023-03-17T10:00:11.544Z,12.90
2023-03-17T10:02:38.152Z,13.36
2023-03-17T10:05:17.096Z,13.22
2023-03-17T10:07:54.399Z,13.47
2023-03-17T10:10:56.920Z,14.24
2023-03-17T10:13:38.990Z,14.51
2023-03-17T10:16:19.360Z,14.31
2023-03-17T10:18:58.465Z,13.79
2023-03-17T10:21:37.529Z,13.64
2023-03-17T10:24:05.164Z,13.96
2023-03-17T10:26:39.752Z,14.19
2023-03-17T10:29:13.751Z,14.31
2023-03-17T10:31:40.624Z,14.30
2023-03-17T10:34:29.278Z,14.96
2023-03-17T10:37:12.830Z,15.29
2023-03-17T10:39:48.251Z,14.89
2023-03-17T10:42:29.545Z,14.80
2023-03-17T10:44:58.432Z,15.41
2023-03-17T10:47:34.685Z,15.62
2023-03-17T10:50:28.862Z,15.47
2023-03-17T10:53:18.283Z,15.30
2023-03-17T10:55:50.600Z,15.49
2023-03-17T10:58:20.253Z,16.00
2023-03-17T11:01:03.680Z,16.44
2023-03-17T11:03:35.956Z,16.38
2023-03-17T11:06:12.247Z,16.62
2023-03-17T11:08:56.802Z,16.84
2023-03-17T11:11:26.299Z,16.67
2023-03-17T11:14:03.362Z,16.57
2023-03-17T11:16:32.900Z,16.56
2023-03-17T11:19:02.269Z,16.77
2023-03-17T11:21:33.889Z,16.64
2023-03-17T11:24:09.406Z,16.86
2023-03-17T11:26:47.405Z,17.36
2023-03-17T11:29:20.689Z,16.90
2023-03-17T11:32:13.736Z,16.60
2023-03-17T11:34:58.920Z,16.75
2023-03-17T11:38:03.563Z,16.67
2023-03-17T11:40:35.262Z,16.23
2023-03-17T11:43:08.054Z,16.18
2023-03-17T11:45:50.474Z,16.17
2023-03-17T11:48:30.306Z,16.55
2023-03-17T11:51:06.665Z,16.72
2023-03-17T11:53:59.588Z,16.55
2023-03-17T11:56:40.792Z,16.74
2023-03-17T11:59:18.476Z,17.04
2023-03-17T12:02:08.082Z,16.69
2023-03-17T12:04:43.546Z,16.50
2023-03-17T12:07:33.076Z,17.35
2023-03-17T12:10:22.858Z,17.25
2023-03-17T12:12:57.952Z,17.27
2023-03-17T12:15:39.331Z,17.93
2023-03-17T12:18:13.141Z,17.20
2023-03-17T12:21:15.825Z,17.16
2023-03-17T12:24:01.750Z,17.19
2023-03-17T12:26:37.173Z,17.34
2023-03-17T12:29:24.906Z,16.97
2023-03-17T12:32:12.650Z,16.70
2023-03-17T12:34:51.715Z,16.56
2023-03-17T12:37:19.465Z,16.83
2023-03-17T12:39:55.562Z,16.87
2023-03-17T12:42:35.583Z,17.15
2023-03-17T12:45:26.246Z,17.04
2023-03-17T12:48:16.780Z,16.95
2023-03-17T12:50:46.380Z,16.69
2023-03-17T12:53:29.505Z,16.77
2023-03-17T12:56:02.404Z,17.03
2023-03-17T12:58:43.816Z,17.04
2023-03-17T13:01:25.390Z,16.84
2023-03-17T13:04:07.264Z,17.03
2023-03-17T13:06:42.551Z,17.17
2023-03-17T13:09:34.038Z,16.87
2023-03-17T13:12:02.170Z,16.72
2023-03-17T13:14:43.106Z,17.04
2023-03-17T13:17:16.597Z,16.96
2023-03-17T13:19:56.837Z,16.56
2023-03-17T13:22:32.568Z,16.43
2023-03-17T13:25:12.644Z,16.51
2023-03-17T13:27:39.086Z,16.39
2023-03-17T13:30:25.731Z,16.80
2023-03-17T13:33:25.735Z,16.97
2023-03-17T13:36:14.293Z,16.93
2023-03-17T13:39:18.614Z,17.14
2023-03-17T13:42:15.692Z,17.06
2023-03-17T13:45:01.080Z,16.81
2023-03-17T13:47:40.124Z,16.72
2023-03-17T13:50:22.269Z,16.88
2023-03-17T13:52:54.653Z,16.88
2023-03-17T13:55:24.120Z,16.74
2023-03-17T13:57:57.290Z,16.80
2023-03-17T14:00:28.866Z,16.67
2023-03-17T14:03:03.744Z,16.50
2023-03-17T14:05:37.923Z,16.44
2023-03-17T14:08:23.557Z,16.54
2023-03-17T14:10:55.739Z,16.55
2023-03-17T14:13:25.566Z,16.62
2023-03-17T14:16:14.059Z,16.72
2023-03-17T14:18:47.421Z,16.57
2023-03-17T14:21:23.963Z,16.44
2023-03-17T14:23:58.803Z,16.45
2023-03-17T14:26:29.014Z,16.60
2023-03-17T14:28:59.156Z,16.74
2023-03-17T14:31:28.110Z,16.82
2023-03-17T14:33:56.958Z,16.70
2023-03-17T14:36:24.971Z,16.66
2023-03-17T14:38:53.721Z,16.83
2023-03-17T14:41:25.961Z,16.71
2023-03-17T14:43:56.898Z,16.72
2023-03-17T14:46:23.660Z,16.82
2023-03-17T14:48:56.912Z,16.86
2023-03-17T14:51:28.492Z,16.86
2023-03-17T14:54:00.113Z,16.79
2023-03-17T14:56:35.516Z,16.53
2023-03-17T14:59:08.094Z,16.50
2023-03-17T15:01:42.864Z,16.40
2023-03-17T15:04:17.736Z,16.49
2023-03-17T15:06:53.614Z,16.53
2023-03-17T15:09:34.970Z,16.35
2023-03-17T15:12:07.091Z,16.34
2023-03-17T15:14:38.629Z,16.29
2023-03-17T15:17:15.792Z,16.42
2023-03-17T15:19:48.004Z,16.20
2023-03-17T15:22:31.858Z,16.26
2023-03-17T15:25:02.303Z,16.28
2023-03-17T15:27:31.263Z,16.20
2023-03-17T15:29:58.137Z,16.32
2023-03-17T15:32:27.361Z,16.33
2023-03-17T15:34:56.866Z,16.26
2023-03-17T15:37:32.148Z,16.35
2023-03-17T15:40:00.170Z,16.23
2023-03-17T15:42:32.924Z,16.33
2023-03-17T15:45:03.528Z,16.37
2023-03-17T15:47:33.803Z,16.38
2023-03-17T15:50:12.046Z,16.38
2023-03-17T15:52:38.564Z,16.37
2023-03-17T15:55:18.362Z,16.39
2023-03-17T15:57:53.916Z,16.32
2023-03-17T16:00:23.711Z,16.37
2023-03-17T16:02:56.140Z,16.33
2023-03-17T16:05:29.250Z,16.33
2023-03-17T16:07:56.232Z,16.33
2023-03-17T16:10:28.645Z,16.34
2023-03-17T16:12:55.428Z,16.29
2023-03-17T16:15:31.659Z,16.26
2023-03-17T16:18:00.434Z,16.01
2023-03-17T16:20:32.616Z,16.06
2023-03-17T16:23:06.929Z,15.84
2023-03-17T16:25:34.213Z,15.81
2023-03-17T16:28:05.070Z,15.91
2023-03-17T16:30:34.438Z,15.81
2023-03-17T16:33:03.598Z,15.82
2023-03-17T16:35:30.333Z,15.77
2023-03-17T16:37:56.963Z,15.78
2023-03-17T16:40:33.050Z,15.79
2023-03-17T16:42:59.542Z,15.85
2023-03-17T16:45:28.020Z,15.82
2023-03-17T16:47:55.957Z,15.72
2023-03-17T16:50:24.976Z,15.73
2023-03-17T16:52:51.915Z,15.68
2023-03-17T16:55:20.798Z,15.69
2023-03-17T16:57:50.393Z,15.68
2023-03-17T17:00:27.113Z,15.66
2023-03-17T17:02:54.254Z,15.59
2023-03-17T17:05:29.778Z,15.44
2023-03-17T17:07:57.308Z,15.43
2023-03-17T17:10:26.336Z,15.40
2023-03-17T17:12:53.543Z,15.30
2023-03-17T17:15:21.844Z,15.27
2023-03-17T17:17:57.214Z,15.23
2023-03-17T17:20:31.111Z,15.17
2023-03-17T17:22:59.713Z,15.08
2023-03-17T17:25:27.142Z,15.07
2023-03-17T17:27:54.920Z,15.00
2023-03-17T17:30:28.166Z,14.96
2023-03-17T17:32:57.596Z,14.91
2023-03-17T17:35:26.092Z,14.90
2023-03-17T17:37:53.714Z,14.83
2023-03-17T17:40:24.369Z,14.79
2023-03-17T17:42:52.121Z,14.75
2023-03-17T17:45:20.124Z,14.70
2023-03-17T17:47:47.183Z,14.63
2023-03-17T17:50:21.063Z,14.56
2023-03-17T17:52:48.017Z,14.56
2023-03-17T17:55:15.181Z,14.47
2023-03-17T17:57:41.981Z,14.43
2023-03-17T18:00:12.676Z,14.34
2023-03-17T18:02:39.216Z,14.24
2023-03-17T18:05:08.085Z,14.17
2023-03-17T18:07:35.717Z,14.06
2023-03-17T18:10:02.846Z,14.14
2023-03-17T18:12:29.428Z,14.15
2023-03-17T18:14:56.080Z,14.09
2023-03-17T18:17:22.950Z,14.06
2023-03-17T18:19:50.449Z,13.98
2023-03-17T18:22:17.192Z,14.01
2023-03-17T18:24:44.089Z,13.94
2023-03-17T18:27:11.735Z,13.96
2023-03-17T18:29:38.874Z,13.93
2023-03-17T18:32:06.937Z,13.88
2023-03-17T18:34:43.268Z,13.86
2023-03-17T18:37:15.187Z,13.82
2023-03-17T18:39:42.494Z,13.76
2023-03-17T18:42:09.702Z,13.77
2023-03-17T18:44:36.815Z,13.66
2023-03-17T18:47:04.140Z,13.62
2023-03-17T18:49:30.858Z,13.66
2023-03-17T18:51:59.379Z,13.58
2023-03-17T18:54:27.715Z,13.52
2023-03-17T18:56:54.895Z,13.43
2023-03-17T18:59:21.538Z,13.43
2023-03-17T19:01:48.009Z,13.41
2023-03-17T19:04:14.592Z,13.34
2023-03-17T19:06:42.555Z,13.29
2023-03-17T19:09:10.504Z,13.22
2023-03-17T19:11:39.198Z,13.24
2023-03-17T19:14:07.457Z,13.22
2023-03-17T19:16:35.114Z,13.07
2023-03-17T19:19:02.567Z,13.00
2023-03-17T19:21:29.097Z,12.93
2023-03-17T19:23:58.983Z,13.02
2023-03-17T19:26:25.511Z,12.98
2023-03-17T19:28:52.188Z,12.99
2023-03-17T19:31:18.842Z,12.92
2023-03-17T19:33:45.536Z,12.90
2023-03-17T19:36:13.007Z,12.87
2023-03-17T19:38:40.994Z,12.82
2023-03-17T19:41:07.970Z,12.78
2023-03-17T19:43:40.710Z,12.68
2023-03-17T19:46:09.255Z,12.80
2023-03-17T19:48:36.643Z,12.77
2023-03-17T19:51:03.386Z,12.66
2023-03-17T19:53:29.924Z,12.56
2023-03-17T19:55:56.879Z,12.59
2023-03-17T19:58:23.734Z,12.56
2023-03-17T20:00:50.568Z,12.52
2023-03-17T20:03:17.191Z,12.42
2023-03-17T20:05:45.721Z,12.33
2023-03-17T20:08:12.295Z,12.47
2023-03-17T20:10:39.200Z,12.48
2023-03-17T20:13:06.356Z,12.40
2023-03-17T20:15:33.598Z,12.40
2023-03-17T20:18:00.705Z,12.39
2023-03-17T20:20:27.448Z,12.32
2023-03-17T20:22:54.190Z,12.31
2023-03-17T20:25:21.683Z,12.27
2023-03-17T20:27:48.412Z,12.24
2023-03-17T20:30:15.276Z,12.20
2023-03-17T20:32:41.768Z,12.05
2023-03-17T20:35:11.724Z,11.97
2023-03-17T20:37:38.733Z,12.03
2023-03-17T20:40:08.159Z,12.12
2023-03-17T20:42:34.622Z,12.13
2023-03-17T20:45:03.317Z,12.15
2023-03-17T20:47:29.815Z,12.07
2023-03-17T20:49:58.596Z,11.94
2023-03-17T20:52:30.285Z,12.00
2023-03-17T20:54:59.349Z,11.94
2023-03-17T20:57:26.237Z,11.90
2023-03-17T20:59:52.858Z,11.78
2023-03-17T21:02:19.520Z,11.88
2023-03-17T21:04:48.583Z,11.91
2023-03-17T21:07:17.092Z,11.86
2023-03-17T21:09:44.161Z,11.87
2023-03-17T21:12:16.200Z,11.86
2023-03-17T21:14:43.035Z,11.86
2023-03-17T21:17:10.786Z,11.87
2023-03-17T21:19:38.165Z,11.65
2023-03-17T21:22:05.627Z,11.59
2023-03-17T21:24:35.007Z,11.62
2023-03-17T21:27:05.046Z,11.64
2023-03-17T21:29:33.190Z,11.55
2023-03-17T21:32:00.978Z,11.59
2023-03-17T21:34:29.873Z,11.71
2023-03-17T21:36:57.171Z,11.69
2023-03-17T21:39:24.845Z,11.63
2023-03-17T21:41:51.753Z,11.63
2023-03-17T21:44:19.251Z,11.61
2023-03-17T21:46:47.856Z,11.63
2023-03-17T21:49:16.304Z,11.57
2023-03-17T21:51:44.328Z,11.53
2023-03-17T21:54:10.958Z,11.50
2023-03-17T21:56:38.966Z,11.47
2023-03-17T21:59:10.958Z,11.36
2023-03-17T22:01:38.932Z,11.43
2023-03-17T22:04:05.636Z,11.41
2023-03-17T22:06:32.352Z,11.38
2023-03-17T22:08:58.796Z,11.45
2023-03-17T22:11:25.663Z,11.52
2023-03-17T22:13:52.274Z,11.46
2023-03-17T22:16:19.661Z,11.44
2023-03-17T22:18:47.475Z,11.43
2023-03-17T22:21:14.660Z,11.48
2023-03-17T22:23:42.320Z,11.46
2023-03-17T22:26:12.337Z,11.41
2023-03-17T22:28:39.374Z,11.43
2023-03-17T22:31:14.691Z,11.46
2023-03-17T22:33:41.903Z,11.38
2023-03-17T22:36:09.354Z,11.42
2023-03-17T22:38:36.301Z,11.38
2023-03-17T22:41:06.410Z,11.36
2023-03-17T22:43:33.024Z,11.34
2023-03-17T22:45:59.650Z,11.36
2023-03-17T22:48:26.664Z,11.36
2023-03-17T22:50:53.281Z,11.33
2023-03-17T22:53:19.815Z,11.29
2023-03-17T22:55:46.604Z,11.30
2023-03-17T22:58:13.158Z,11.32
2023-03-17T23:00:40.455Z,11.21
2023-03-17T23:03:07.186Z,11.26
2023-03-17T23:05:33.884Z,11.24
2023-03-17T23:08:00.565Z,11.30
2023-03-17T23:10:28.543Z,11.25
2023-03-17T23:12:55.399Z,11.32
2023-03-17T23:15:22.354Z,11.31
2023-03-17T23:17:48.935Z,11.16
2023-03-17T23:20:15.818Z,11.23
2023-03-17T23:22:42.454Z,11.23
2023-03-17T23:25:09.924Z,11.26
2023-03-17T23:27:36.646Z,11.18
2023-03-17T23:30:04.312Z,11.14
2023-03-17T23:32:31.901Z,11.23
2023-03-17T23:34:58.493Z,11.27
2023-03-17T23:37:25.100Z,11.23
2023-03-17T23:39:51.598Z,11.22
2023-03-17T23:42:18.255Z,11.19
2023-03-17T23:44:45.031Z,11.22
2023-03-17T23:47:11.910Z,11.21
2023-03-17T23:49:39.052Z,11.24
2023-03-17T23:52:05.785Z,11.17
2023-03-17T23:54:32.951Z,11.21
2023-03-17T23:57:00.111Z,11.12
2023-03-17T23:59:26.882Z,11.13
